Time;durP1;ratioP1;P1;durP2;ratioP2;P2;SDS_P1;SDS_P2;PMS_P1;PMS_P2;Temp;Humidity;BMP_temperature;BMP_pressure;BME280_temperature;BME280_humidity;BME280_pressure;Samples;Min_cycle;Max_cycle;Signal;HPM_P1;HPM_P2
2023/03/30 00:03:12;;;;;;;6.80;2.75;;;;;;;11.65;100.00;100431.00;10367995;28;20077;-75
2023/03/30 00:08:13;;;;;;;3.75;2.40;;;;;;;11.43;100.00;100442.44;10366481;28;20506;-75
2023/03/30 00:13:13;;;;;;;14.20;5.05;;;;;;;11.45;100.00;100427.69;10388183;28;20108;-75
2023/03/30 00:18:14;;;;;;;7.05;2.67;;;;;;;11.36;100.00;100427.34;10387465;28;20507;-75
2023/03/30 00:23:15;;;;;;;5.32;2.97;;;;;;;11.48;100.00;100433.03;10398571;28;20120;-75
2023/03/30 00:28:16;;;;;;;4.38;2.75;;;;;;;11.59;100.00;100409.81;10365869;28;20034;-74
2023/03/30 00:33:16;;;;;;;5.55;1.63;;;;;;;11.88;100.00;100416.13;10364015;28;20092;-76
2023/03/30 00:38:17;;;;;;;8.25;2.95;;;;;;;12.10;100.00;100408.13;10365375;28;20520;-75
2023/03/30 00:43:17;;;;;;;3.65;2.00;;;;;;;12.12;100.00;100414.31;10364415;28;20080;-75
2023/03/30 00:48:26;;;;;;;7.15;1.75;;;;;;;12.22;100.00;100411.16;10355118;28;20391;-75
2023/03/30 00:53:30;;;;;;;30.55;3.65;;;;;;;12.23;100.00;100398.94;10349204;28;20053;-75
2023/03/30 00:58:30;;;;;;;6.82;2.03;;;;;;;12.21;100.00;100387.50;10363779;28;20057;-75
2023/03/30 01:03:36;;;;;;;6.40;2.03;;;;;;;12.24;100.00;100383.22;10364975;28;20133;-75
2023/03/30 01:08:36;;;;;;;10.35;3.25;;;;;;;12.24;100.00;100377.09;10347251;28;20375;-75
2023/03/30 01:13:39;;;;;;;5.57;2.38;;;;;;;12.05;100.00;100371.25;10346902;28;20041;-75
2023/03/30 01:18:43;;;;;;;10.65;4.38;;;;;;;12.03;100.00;100360.69;10361457;28;20442;-75
2023/03/30 01:24:03;;;;;;;8.50;2.22;;;;;;;12.17;100.00;100362.88;10404244;28;20045;-75
2023/03/30 01:29:33;;;;;;;8.13;3.50;;;;;;;12.30;100.00;100370.31;10380507;28;20033;-75
2023/03/30 01:34:58;;;;;;;4.78;2.08;;;;;;;12.60;100.00;100347.63;10364192;28;20049;-75
2023/03/30 01:40:08;;;;;;;11.73;2.53;;;;;;;12.67;100.00;100359.19;10368234;28;20085;-75
2023/03/30 01:45:26;;;;;;;7.07;2.15;;;;;;;12.60;100.00;100358.13;10363968;28;20038;-75
2023/03/30 01:50:30;;;;;;;4.50;2.35;;;;;;;12.54;100.00;100347.44;10346740;28;20064;-75
2023/03/30 01:55:33;;;;;;;9.80;2.30;;;;;;;12.50;100.00;100350.81;10347006;28;20034;-75
2023/03/30 02:00:35;;;;;;;7.95;1.98;;;;;;;12.33;100.00;100343.31;10378922;28;20037;-75
2023/03/30 02:05:35;;;;;;;5.20;1.48;;;;;;;12.18;100.00;100339.34;10345638;28;20128;-75
2023/03/30 02:10:36;;;;;;;7.35;3.17;;;;;;;12.05;100.00;100339.78;10361458;28;20405;-75
2023/03/30 02:15:39;;;;;;;3.55;1.63;;;;;;;11.69;100.00;100335.03;10360719;28;20172;-75
2023/03/30 02:20:41;;;;;;;5.20;2.53;;;;;;;11.46;100.00;100333.38;10344507;28;20064;-75
2023/03/30 02:25:42;;;;;;;7.28;2.65;;;;;;;11.55;100.00;100334.53;10359667;28;20037;-75
2023/03/30 02:30:43;;;;;;;5.77;2.10;;;;;;;11.67;100.00;100316.63;10362562;28;20042;-75
2023/03/30 02:36:03;;;;;;;5.47;2.20;;;;;;;11.60;100.00;100320.78;10358776;28;20042;-75
2023/03/30 02:41:15;;;;;;;7.03;1.92;;;;;;;11.59;100.00;100318.09;10360381;28;20110;-75
2023/03/30 02:46:35;;;;;;;4.85;2.17;;;;;;;11.63;100.00;100324.34;10347173;28;20046;-76
2023/03/30 02:51:51;;;;;;;4.45;1.63;;;;;;;11.68;100.00;100323.63;10357311;28;20562;-75
2023/03/30 02:57:01;;;;;;;9.23;1.90;;;;;;;11.65;100.00;100323.53;10359853;28;20497;-75
2023/03/30 03:02:20;;;;;;;10.93;1.83;;;;;;;11.63;100.00;100332.19;10361986;28;20125;-76
2023/03/30 03:07:21;;;;;;;4.40;2.10;;;;;;;12.02;100.00;100332.69;10358781;28;20041;-75
2023/03/30 03:12:21;;;;;;;6.30;1.42;;;;;;;12.24;100.00;100337.75;10343414;28;20041;-75
2023/03/30 03:17:22;;;;;;;5.43;1.98;;;;;;;12.34;100.00;100340.72;10358663;28;20125;-76
2023/03/30 03:22:22;;;;;;;10.25;3.20;;;;;;;12.51;100.00;100328.97;10378232;28;20545;-75
2023/03/30 03:27:23;;;;;;;4.85;2.13;;;;;;;12.71;100.00;100324.31;10361453;28;20049;-79
2023/03/30 03:32:23;;;;;;;3.90;1.67;;;;;;;12.88;100.00;100330.97;10349654;28;20034;-76
2023/03/30 03:37:24;;;;;;;4.88;1.58;;;;;;;12.85;100.00;100306.38;10389278;28;20118;-75
2023/03/30 03:42:24;;;;;;;4.93;1.77;;;;;;;12.88;100.00;100298.56;10372561;28;20052;-75
2023/03/30 03:47:25;;;;;;;8.98;4.30;;;;;;;12.99;100.00;100296.25;10367843;28;20428;-76
2023/03/30 03:52:25;;;;;;;4.35;1.63;;;;;;;13.03;100.00;100292.84;10367547;28;20057;-76
2023/03/30 03:57:26;;;;;;;5.20;1.58;;;;;;;12.96;100.00;100297.06;10366150;28;20088;-76
2023/03/30 04:02:26;;;;;;;8.55;2.78;;;;;;;12.92;100.00;100293.44;10366928;28;20077;-76
2023/03/30 04:07:28;;;;;;;9.98;3.15;;;;;;;12.84;100.00;100304.59;10364527;28;20141;-75
2023/03/30 04:12:29;;;;;;;5.63;1.97;;;;;;;12.77;100.00;100311.38;10386995;28;20049;-75
2023/03/30 04:17:32;;;;;;;6.43;2.63;;;;;;;12.81;100.00;100310.63;10348311;28;20327;-75
2023/03/30 04:22:34;;;;;;;8.10;2.13;;;;;;;12.81;100.00;100305.38;10397362;28;20037;-75
2023/03/30 04:27:36;;;;;;;6.25;1.67;;;;;;;12.83;100.00;100293.19;10395561;28;20486;-76
2023/03/30 04:32:40;;;;;;;6.80;1.98;;;;;;;12.78;100.00;100295.69;10363812;28;20033;-75
2023/03/30 04:37:41;;;;;;;12.43;4.65;;;;;;;12.88;100.00;100288.94;10357071;28;20381;-76
2023/03/30 04:42:41;;;;;;;19.33;4.13;;;;;;;12.83;100.00;100281.81;10364824;28;20109;-74
2023/03/30 04:47:42;;;;;;;8.48;2.88;;;;;;;12.66;100.00;100276.03;10397025;28;20081;-74
2023/03/30 04:52:42;;;;;;;5.57;1.77;;;;;;;12.48;100.00;100287.75;10358076;28;20060;-75
2023/03/30 04:57:43;;;;;;;7.03;1.65;;;;;;;12.53;100.00;100273.03;10363562;28;20493;-74
2023/03/30 05:02:43;;;;;;;5.35;1.95;;;;;;;12.53;100.00;100286.16;10366978;28;20565;-75
2023/03/30 05:07:47;;;;;;;4.97;2.08;;;;;;;12.37;100.00;100287.44;10358450;28;20136;-75
2023/03/30 05:12:48;;;;;;;6.55;2.20;;;;;;;12.36;100.00;100280.41;10360387;28;20046;-74
2023/03/30 05:17:48;;;;;;;5.72;1.50;;;;;;;12.34;100.00;100267.22;10362407;28;20512;-74
2023/03/30 05:22:49;;;;;;;3.47;1.85;;;;;;;12.10;100.00;100271.72;10353518;28;20044;-75
2023/03/30 05:27:50;;;;;;;9.18;1.80;;;;;;;12.04;100.00;100288.16;10357271;28;20087;-74
2023/03/30 05:32:50;;;;;;;15.40;6.47;;;;;;;11.95;100.00;100275.59;10367528;28;20201;-74
2023/03/30 05:37:53;;;;;;;22.63;10.90;;;;;;;11.89;100.00;100286.78;10345661;28;20050;-74
2023/03/30 05:42:53;;;;;;;;;;;;;;;11.82;100.00;100278.66;10363252;28;20030;-73
2023/03/30 05:47:53;;;;;;;12.83;4.70;;;;;;;11.96;100.00;100281.75;10357765;28;19928;-75
2023/03/30 05:52:54;;;;;;;11.48;5.97;;;;;;;11.96;100.00;100287.84;10362557;28;20260;-73
2023/03/30 05:57:55;;;;;;;10.45;5.05;;;;;;;12.11;100.00;100291.84;10337656;28;20724;-73
2023/03/30 06:02:56;;;;;;;7.60;3.53;;;;;;;12.17;100.00;100289.44;10373801;28;20073;-73
2023/03/30 06:07:59;;;;;;;3.92;1.40;;;;;;;12.27;100.00;100294.13;10365450;28;20041;-72
2023/03/30 06:13:00;;;;;;;8.75;4.68;;;;;;;12.53;100.00;100304.53;10368624;28;20079;-73
2023/03/30 06:18:02;;;;;;;12.15;6.65;;;;;;;13.25;100.00;100310.13;10365425;28;20120;-73
2023/03/30 06:23:03;;;;;;;11.73;2.70;;;;;;;13.35;100.00;100306.91;10374786;28;20106;-73
2023/03/30 06:28:04;;;;;;;7.65;2.05;;;;;;;13.80;100.00;100318.63;10370566;28;20120;-74
2023/03/30 06:33:05;;;;;;;5.45;1.95;;;;;;;13.38;100.00;100328.88;10360305;28;20034;-74
2023/03/30 06:38:05;;;;;;;3.17;1.80;;;;;;;13.14;100.00;100329.97;10367096;28;20045;-73
2023/03/30 06:43:06;;;;;;;8.15;2.50;;;;;;;13.22;100.00;100344.22;10362349;28;20120;-74
2023/03/30 06:48:08;;;;;;;;;;;;;;;12.46;100.00;100358.59;10356561;28;20128;-77
2023/03/30 06:53:08;;;;;;;5.38;2.10;;;;;;;11.85;100.00;100357.41;10394551;28;20480;-78
2023/03/30 06:58:09;;;;;;;6.03;1.90;;;;;;;11.82;100.00;100366.09;10350578;28;20545;-75
2023/03/30 07:03:09;;;;;;;6.05;2.42;;;;;;;11.82;100.00;100378.28;10371945;28;20173;-77
2023/03/30 07:08:09;;;;;;;4.63;1.70;;;;;;;12.03;100.00;100380.81;10352366;28;20038;-77
2023/03/30 07:13:10;;;;;;;3.83;2.17;;;;;;;12.25;100.00;100392.88;10399566;28;20461;-75
2023/03/30 07:18:11;;;;;;;4.95;2.83;;;;;;;12.65;100.00;100385.44;10355928;28;20041;-77
2023/03/30 07:23:11;;;;;;;7.40;2.10;;;;;;;12.36;100.00;100397.59;10378232;28;20091;-75
2023/03/30 07:28:13;;;;;;;6.75;2.58;;;;;;;14.00;100.00;100394.53;10361475;28;20045;-76
2023/03/30 07:33:13;;;;;;;3.53;1.80;;;;;;;14.32;100.00;100385.69;10363400;28;20041;-75
2023/03/30 07:38:14;;;;;;;13.93;3.40;;;;;;;14.72;100.00;100383.13;10399009;28;20049;-75
2023/03/30 07:43:15;;;;;;;8.98;3.90;;;;;;;16.54;100.00;100398.06;10371572;28;20120;-77
2023/03/30 07:48:15;;;;;;;12.88;2.83;;;;;;;17.43;100.00;100395.81;10390260;28;20522;-76
2023/03/30 07:53:16;;;;;;;6.30;2.17;;;;;;;18.04;100.00;100402.66;10390597;28;20121;-75
2023/03/30 07:58:16;;;;;;;6.22;3.05;;;;;;;16.56;100.00;100406.91;10358435;28;20142;-75
2023/03/30 08:03:18;;;;;;;5.38;1.77;;;;;;;16.55;100.00;100419.25;10391572;28;20103;-76
2023/03/30 08:08:18;;;;;;;9.17;3.97;;;;;;;16.87;100.00;100399.44;10375351;28;20176;-76
2023/03/30 08:13:19;;;;;;;6.10;2.33;;;;;;;17.96;100.00;100421.94;10393397;28;20289;-75
2023/03/30 08:18:20;;;;;;;9.35;2.58;;;;;;;16.12;100.00;100416.75;10348088;28;20041;-76
2023/03/30 08:23:20;;;;;;;5.78;2.22;;;;;;;14.24;100.00;100430.22;10368053;28;20057;-75
2023/03/30 08:28:21;;;;;;;9.77;3.47;;;;;;;14.29;100.00;100428.59;10379950;28;20038;-75
2023/03/30 08:33:23;;;;;;;8.85;2.70;;;;;;;15.06;100.00;100413.78;10359325;28;20034;-76
2023/03/30 08:38:24;;;;;;;7.22;1.80;;;;;;;14.40;100.00;100426.25;10397533;28;20046;-74
2023/03/30 08:43:28;;;;;;;9.25;2.85;;;;;;;15.36;100.00;100420.56;10369694;28;20046;-75
2023/03/30 08:48:32;;;;;;;9.32;2.67;;;;;;;15.80;100.00;100400.31;10368424;28;20046;-74
2023/03/30 08:53:32;;;;;;;10.63;3.60;;;;;;;14.87;100.00;100432.66;10362991;28;20042;-75
2023/03/30 08:59:03;;;;;;;10.32;2.38;;;;;;;14.18;100.00;100419.53;10378860;28;20497;-75
2023/03/30 09:04:33;;;;;;;12.50;2.50;;;;;;;14.96;100.00;100439.03;10356904;28;20050;-76
2023/03/30 09:09:40;;;;;;;10.02;2.92;;;;;;;14.21;100.00;100457.38;10341453;28;20049;-76
2023/03/30 09:14:44;;;;;;;13.63;3.92;;;;;;;13.56;100.00;100466.13;10366314;28;20076;-75
2023/03/30 09:19:52;;;;;;;10.02;2.70;;;;;;;13.26;100.00;100466.97;10358036;28;20042;-76
2023/03/30 09:24:54;;;;;;;9.98;4.03;;;;;;;13.09;100.00;100495.31;10353443;28;20421;-75
2023/03/30 09:29:57;;;;;;;13.90;2.85;;;;;;;12.99;100.00;100509.00;10374208;28;20437;-75
2023/03/30 09:35:12;;;;;;;7.38;2.88;;;;;;;13.09;100.00;100494.44;10365874;28;20049;-75
2023/03/30 09:40:38;;;;;;;13.18;4.78;;;;;;;13.22;100.00;100510.63;10360038;28;20037;-75
2023/03/30 09:45:42;;;;;;;11.65;3.15;;;;;;;13.14;100.00;100504.25;10308928;28;20050;-75
2023/03/30 09:50:43;;;;;;;11.23;2.40;;;;;;;14.43;100.00;100510.59;10394251;28;20046;-76
2023/03/30 09:55:57;;;;;;;12.52;2.80;;;;;;;16.41;100.00;100514.09;10359989;28;20030;-75
2023/03/30 10:01:05;;;;;;;7.07;2.33;;;;;;;18.15;100.00;100510.47;10353369;28;20386;-75
2023/03/30 10:06:12;;;;;;;17.15;4.45;;;;;;;16.83;100.00;100505.97;10373043;28;20038;-75
2023/03/30 10:11:12;;;;;;;15.23;4.05;;;;;;;16.73;100.00;100510.22;10365182;28;20117;-76
2023/03/30 10:16:27;;;;;;;13.68;3.17;;;;;;;16.90;100.00;100505.22;10340279;28;20440;-75
2023/03/30 10:21:35;;;;;;;8.90;5.10;;;;;;;15.25;100.00;100509.94;10343592;28;20410;-75
2023/03/30 10:26:36;;;;;;;11.85;3.15;;;;;;;15.17;100.00;100510.66;10382635;28;20033;-76
2023/03/30 10:31:38;;;;;;;8.05;3.15;;;;;;;14.60;100.00;100537.34;10364613;28;20523;-76
2023/03/30 10:36:39;;;;;;;7.40;2.27;;;;;;;14.59;100.00;100514.50;10326602;28;20052;-76
2023/03/30 10:41:40;;;;;;;10.38;2.72;;;;;;;14.47;100.00;100509.81;10375496;28;20040;-76
2023/03/30 10:46:40;;;;;;;11.85;4.60;;;;;;;14.60;100.00;100523.28;10341217;28;20037;-76
2023/03/30 10:51:59;;;;;;;7.97;2.47;;;;;;;14.24;100.00;100525.88;10368281;28;20507;-77
2023/03/30 10:57:05;;;;;;;15.52;3.40;;;;;;;16.38;100.00;100516.66;10358593;28;20131;-77
2023/03/30 11:02:32;;;;;;;9.20;4.35;;;;;;;15.54;100.00;100520.25;10358101;28;20591;-78
2023/03/30 11:07:34;;;;;;;12.88;5.30;;;;;;;14.87;100.00;100546.81;10387464;28;20034;-78
2023/03/30 11:12:38;;;;;;;14.15;5.13;;;;;;;14.78;100.00;100533.44;10382018;28;20112;-78
2023/03/30 11:18:01;;;;;;;12.85;3.60;;;;;;;14.27;100.00;100530.31;10373982;28;20088;-78
2023/03/30 11:23:05;;;;;;;;;;;;;;;13.36;100.00;100549.59;10359583;28;20117;-79
2023/03/30 11:28:12;;;;;;;21.27;7.22;;;;;;;11.98;100.00;100558.06;10350808;28;20012;-77
2023/03/30 11:33:28;;;;;;;20.23;8.88;;;;;;;12.10;100.00;100560.25;10360197;28;20520;-78
2023/03/30 11:39:00;;;;;;;18.73;7.63;;;;;;;14.08;100.00;100561.41;10355910;28;20038;-77
2023/03/30 11:44:00;;;;;;;18.17;4.07;;;;;;;15.14;100.00;100543.09;10340384;28;20397;-78
2023/03/30 11:49:10;;;;;;;12.70;5.55;;;;;;;13.20;100.00;100545.59;10362474;28;20129;-77
2023/03/30 11:54:19;;;;;;;20.15;3.08;;;;;;;11.44;100.00;100572.63;10373661;28;20057;-77
2023/03/30 11:59:32;;;;;;;13.10;4.50;;;;;;;10.80;100.00;100580.53;10393991;28;20058;-77
2023/03/30 12:04:46;;;;;;;10.15;4.00;;;;;;;10.72;100.00;100589.78;10361817;28;20048;-76
2023/03/30 12:09:52;;;;;;;16.48;3.33;;;;;;;11.02;100.00;100584.03;10347759;28;20038;-76
2023/03/30 12:15:10;;;;;;;4.97;2.53;;;;;;;13.88;100.00;100591.50;10380866;28;20037;-76
2023/03/30 12:20:38;;;;;;;14.45;4.13;;;;;;;17.16;100.00;100552.34;10365818;28;20042;-77
2023/03/30 12:26:02;;;;;;;6.05;2.50;;;;;;;17.61;100.00;100564.47;10406837;28;20206;-78
2023/03/30 12:31:03;;;;;;;18.67;9.00;;;;;;;17.61;100.00;100551.25;10393410;28;20128;-77
2023/03/30 12:36:21;;;;;;;18.60;7.47;;;;;;;18.33;100.00;100541.53;10387375;28;20046;-77
2023/03/30 12:41:22;;;;;;;50.40;20.83;;;;;;;17.92;100.00;100545.47;10368695;28;20504;-77
2023/03/30 12:46:40;;;;;;;221.95;83.50;;;;;;;17.38;100.00;100520.94;10352306;28;20053;-77
2023/03/30 12:52:14;;;;;;;36.53;12.25;;;;;;;17.23;100.00;100519.84;10390626;28;20046;-78
2023/03/30 12:57:41;;;;;;;19.45;6.45;;;;;;;19.00;100.00;100497.97;10343141;28;20045;-80
2023/03/30 13:03:06;;;;;;;74.45;29.10;;;;;;;19.66;96.46;100515.19;10361348;28;20049;-78
2023/03/30 13:08:36;;;;;;;23.52;7.78;;;;;;;18.67;92.38;100504.75;10389132;28;20041;-77
2023/03/30 13:13:56;;;;;;;9.23;3.35;;;;;;;18.89;100.00;100499.63;10357468;28;20038;-79
2023/03/30 13:18:57;;;;;;;21.70;7.10;;;;;;;19.75;93.48;100491.31;10362183;28;20069;-78
2023/03/30 13:24:21;;;;;;;18.35;8.38;;;;;;;20.56;88.49;100486.19;10339362;28;20129;-80
2023/03/30 13:29:22;;;;;;;12.52;4.13;;;;;;;19.39;91.21;100484.06;10349776;28;20073;-78
2023/03/30 13:34:59;;;;;;;19.85;5.53;;;;;;;18.86;91.92;100494.31;10355908;28;20046;-77
2023/03/30 13:40:41;;;;;;;25.73;10.35;;;;;;;16.67;100.00;100489.88;10377507;28;20038;-78
2023/03/30 13:45:47;;;;;;;16.27;7.27;;;;;;;15.67;100.00;100496.78;10344596;28;20041;-78
2023/03/30 13:50:54;;;;;;;17.48;7.75;;;;;;;15.63;100.00;100480.00;10358249;28;20047;-78
2023/03/30 13:55:55;;;;;;;81.18;30.23;;;;;;;15.46;100.00;100478.78;10364983;28;20041;-78
2023/03/30 14:01:00;;;;;;;12.77;4.45;;;;;;;16.91;100.00;100477.03;10373943;28;20046;-79
2023/03/30 14:06:13;;;;;;;59.10;21.40;;;;;;;16.74;100.00;100483.81;10348979;28;20096;-80
2023/03/30 14:11:21;;;;;;;16.98;5.60;;;;;;;16.94;100.00;100482.38;10387321;28;20406;-78
2023/03/30 14:16:23;;;;;;;15.32;4.25;;;;;;;17.91;89.39;100475.75;10367960;28;20041;-81
2023/03/30 14:21:24;;;;;;;10.85;4.00;;;;;;;17.16;87.89;100483.59;10381041;28;20045;-81
2023/03/30 14:26:26;;;;;;;13.68;3.42;;;;;;;15.88;100.00;100471.72;10373781;28;20157;-80
2023/03/30 14:31:27;;;;;;;236.13;94.32;;;;;;;15.06;100.00;100486.66;10352541;28;20049;-79
2023/03/30 14:36:27;;;;;;;10.18;3.95;;;;;;;14.19;100.00;100545.03;10367692;28;20042;-79
2023/03/30 14:41:28;;;;;;;10.73;3.65;;;;;;;12.30;100.00;100555.75;10387070;28;20481;-79
2023/03/30 14:46:48;;;;;;;11.15;3.60;;;;;;;12.68;100.00;100552.66;10387246;28;20029;-80
2023/03/30 14:51:50;;;;;;;41.38;16.92;;;;;;;14.92;100.00;100539.06;10343812;28;20034;-79
2023/03/30 14:57:02;;;;;;;15.32;6.70;;;;;;;16.37;100.00;100520.16;10362235;28;20394;-78
2023/03/30 15:02:03;;;;;;;35.78;12.15;;;;;;;16.81;100.00;100512.97;10387989;28;20055;-78
2023/03/30 15:07:03;;;;;;;22.63;8.18;;;;;;;16.95;100.00;100505.28;10363475;28;20485;-77
2023/03/30 15:12:04;;;;;;;47.40;16.30;;;;;;;15.34;100.00;100513.66;10374438;28;20126;-78
2023/03/30 15:17:12;;;;;;;38.35;14.05;;;;;;;14.31;100.00;100513.75;10358971;28;20029;-78
2023/03/30 15:22:18;;;;;;;10.20;4.03;;;;;;;14.71;100.00;100500.78;10392543;28;20080;-78
2023/03/30 15:27:19;;;;;;;64.30;23.00;;;;;;;15.42;100.00;100504.16;10401833;28;20033;-79
2023/03/30 15:32:33;;;;;;;13.97;5.47;;;;;;;15.88;100.00;100499.00;10347419;28;20034;-77
2023/03/30 15:37:35;;;;;;;38.33;13.80;;;;;;;14.93;100.00;100504.81;10374207;28;20061;-77
2023/03/30 15:42:36;;;;;;;24.23;9.48;;;;;;;14.34;100.00;100499.81;10376704;28;20038;-77
2023/03/30 15:47:36;;;;;;;19.83;4.97;;;;;;;13.99;100.00;100495.34;10358083;28;20148;-76
2023/03/30 15:52:40;;;;;;;22.00;10.70;;;;;;;13.56;100.00;100508.19;10357647;28;20034;-77
2023/03/30 15:57:42;;;;;;;7.93;3.75;;;;;;;13.13;100.00;100519.97;10339749;28;20503;-75
2023/03/30 16:02:56;;;;;;;12.05;3.45;;;;;;;12.19;100.00;100543.13;10372633;28;20045;-76
2023/03/30 16:07:56;;;;;;;15.57;3.60;;;;;;;11.75;100.00;100551.09;10336365;28;20555;-75
2023/03/30 16:12:58;;;;;;;16.92;4.88;;;;;;;11.72;100.00;100564.09;10360212;28;20053;-75
2023/03/30 16:17:58;;;;;;;10.63;3.65;;;;;;;11.90;100.00;100569.16;10352013;28;20045;-75
2023/03/30 16:22:59;;;;;;;15.15;4.60;;;;;;;11.65;100.00;100553.34;10385634;28;20132;-74
2023/03/30 16:27:59;;;;;;;8.48;2.47;;;;;;;11.48;100.00;100558.81;10369883;28;20566;-76
2023/03/30 16:33:00;;;;;;;5.85;1.67;;;;;;;11.51;100.00;100555.41;10356298;28;20121;-76
2023/03/30 16:38:01;;;;;;;4.20;1.48;;;;;;;11.43;100.00;100547.25;10381122;28;20113;-76
2023/03/30 16:43:02;;;;;;;8.60;2.78;;;;;;;11.29;100.00;100559.81;10366933;28;20034;-75
2023/03/30 16:48:03;;;;;;;19.08;3.45;;;;;;;11.51;100.00;100542.28;10379546;28;20045;-75
2023/03/30 16:53:04;;;;;;;6.45;3.08;;;;;;;11.33;100.00;100550.34;10364160;28;20060;-75
2023/03/30 16:58:05;;;;;;;5.18;2.17;;;;;;;11.10;100.00;100547.72;10384251;28;20046;-75
2023/03/30 17:03:06;;;;;;;8.80;1.58;;;;;;;11.14;100.00;100553.13;10362512;28;20042;-76
2023/03/30 17:08:17;;;;;;;4.32;1.45;;;;;;;11.10;100.00;100553.81;10362203;28;20046;-76
2023/03/30 17:13:18;;;;;;;6.73;1.70;;;;;;;11.21;100.00;100559.50;10362063;28;20043;-76
2023/03/30 17:18:21;;;;;;;6.80;2.28;;;;;;;11.08;100.00;100549.38;10337338;28;20156;-76
2023/03/30 17:23:23;;;;;;;10.25;2.35;;;;;;;10.87;100.00;100560.75;10363769;28;20042;-75
2023/03/30 17:28:25;;;;;;;5.47;1.65;;;;;;;10.62;100.00;100546.63;10393532;28;20461;-75
2023/03/30 17:33:26;;;;;;;8.73;3.00;;;;;;;10.38;100.00;100552.56;10367749;28;20060;-76
2023/03/30 17:38:28;;;;;;;19.17;3.13;;;;;;;10.25;100.00;100558.97;10378503;28;20048;-77
2023/03/30 17:43:29;;;;;;;13.73;4.10;;;;;;;10.25;100.00;100561.59;10362803;28;20041;-77
2023/03/30 17:48:29;;;;;;;11.45;5.57;;;;;;;10.36;100.00;100564.69;10360285;28;20516;-76
2023/03/30 17:53:30;;;;;;;17.85;4.18;;;;;;;10.36;100.00;100564.69;10361485;28;20037;-76
2023/03/30 17:58:33;;;;;;;8.05;2.38;;;;;;;10.21;100.00;100553.56;10375293;28;20030;-76
2023/03/30 18:03:33;;;;;;;8.68;2.60;;;;;;;10.02;100.00;100557.97;10374926;28;20029;-75
2023/03/30 18:08:34;;;;;;;8.15;2.38;;;;;;;9.83;100.00;100557.13;10392912;28;20397;-74
2023/03/30 18:13:35;;;;;;;5.13;1.77;;;;;;;9.49;100.00;100560.81;10362187;28;20037;-74
2023/03/30 18:18:36;;;;;;;10.65;3.13;;;;;;;9.21;100.00;100555.97;10389785;28;20057;-75
2023/03/30 18:23:36;;;;;;;4.68;2.22;;;;;;;8.94;100.00;100570.38;10384527;28;20132;-75
2023/03/30 18:28:41;;;;;;;9.45;3.30;;;;;;;8.80;100.00;100558.34;10359185;28;20477;-75
2023/03/30 18:33:41;;;;;;;6.35;3.00;;;;;;;8.62;100.00;100553.09;10359413;28;20041;-77
2023/03/30 18:38:42;;;;;;;11.48;3.10;;;;;;;8.57;100.00;100565.00;10359987;28;20464;-75
2023/03/30 18:43:42;;;;;;;18.77;4.43;;;;;;;8.79;100.00;100565.28;10374803;28;20124;-75
2023/03/30 18:48:43;;;;;;;7.03;4.32;;;;;;;8.94;100.00;100562.53;10389112;28;20129;-75
2023/03/30 18:53:43;;;;;;;9.60;4.18;;;;;;;9.01;100.00;100560.22;10358492;28;20064;-76
2023/03/30 18:58:44;;;;;;;10.60;5.20;;;;;;;9.04;100.00;100561.25;10358804;28;20124;-76
2023/03/30 19:03:44;;;;;;;7.35;2.78;;;;;;;9.08;100.00;100551.88;10374648;28;20548;-76
2023/03/30 19:08:45;;;;;;;5.25;2.72;;;;;;;9.32;100.00;100557.38;10360948;28;20029;-75
2023/03/30 19:13:46;;;;;;;12.15;4.10;;;;;;;9.34;100.00;100549.63;10356792;28;20073;-75
2023/03/30 19:18:48;;;;;;;8.57;2.50;;;;;;;9.16;100.00;100550.53;10357832;28;20030;-76
2023/03/30 19:23:49;;;;;;;;;;;;;;;9.20;100.00;100541.13;10356310;28;20041;-76
2023/03/30 19:28:49;;;;;;;10.10;3.42;;;;;;;9.17;100.00;100541.88;10360575;28;19929;-75
2023/03/30 19:33:50;;;;;;;12.55;4.38;;;;;;;9.01;100.00;100535.00;10358497;28;20121;-75
2023/03/30 19:38:50;;;;;;;7.93;2.03;;;;;;;8.95;100.00;100535.63;10356760;28;20048;-76
2023/03/30 19:43:51;;;;;;;6.05;3.60;;;;;;;8.89;100.00;100532.72;10374073;28;20105;-76
2023/03/30 19:48:51;;;;;;;7.40;2.38;;;;;;;8.96;100.00;100524.38;10340079;28;20489;-76
2023/03/30 19:53:52;;;;;;;7.80;2.22;;;;;;;8.92;100.00;100526.72;10355704;28;20061;-75
2023/03/30 19:58:53;;;;;;;8.68;2.25;;;;;;;9.08;100.00;100524.03;10359463;28;20172;-76
2023/03/30 20:03:53;;;;;;;7.13;2.33;;;;;;;9.13;100.00;100523.38;10381986;28;20204;-76
2023/03/30 20:08:54;;;;;;;8.02;3.65;;;;;;;9.04;100.00;100514.28;10349241;28;20117;-75
2023/03/30 20:13:54;;;;;;;6.72;2.17;;;;;;;8.94;100.00;100512.03;10348332;28;20124;-76
2023/03/30 20:18:56;;;;;;;8.65;2.17;;;;;;;8.98;100.00;100511.38;10372184;28;20047;-76
2023/03/30 20:23:58;;;;;;;8.43;1.95;;;;;;;9.16;100.00;100513.97;10387158;28;20030;-76
2023/03/30 20:28:59;;;;;;;6.43;1.83;;;;;;;9.30;100.00;100501.56;10348632;28;20038;-76
2023/03/30 20:34:00;;;;;;;8.47;2.07;;;;;;;9.27;100.00;100498.81;10382072;28;20034;-76
2023/03/30 20:39:00;;;;;;;3.40;1.95;;;;;;;9.20;100.00;100484.59;10404324;28;20264;-76
2023/03/30 20:44:02;;;;;;;8.55;2.47;;;;;;;9.14;100.00;100489.53;10381233;28;20053;-76
2023/03/30 20:49:03;;;;;;;7.10;2.13;;;;;;;9.07;100.00;100470.03;10365215;28;20041;-76
2023/03/30 20:54:04;;;;;;;5.47;1.63;;;;;;;9.09;100.00;100476.22;10364711;28;20056;-77
2023/03/30 20:59:05;;;;;;;6.15;2.47;;;;;;;9.17;100.00;100480.91;10362859;28;20390;-76
2023/03/30 21:04:05;;;;;;;4.65;2.35;;;;;;;9.11;100.00;100485.03;10309623;28;20130;-76
2023/03/30 21:09:07;;;;;;;13.35;3.38;;;;;;;9.26;100.00;100473.50;10345067;28;20516;-76
2023/03/30 21:14:10;;;;;;;5.05;1.95;;;;;;;9.24;100.00;100470.84;10323705;28;20085;-76
2023/03/30 21:19:10;;;;;;;8.88;4.22;;;;;;;9.17;100.00;100473.09;10410618;28;20053;-76
2023/03/30 21:24:11;;;;;;;10.43;2.25;;;;;;;9.18;100.00;100467.94;10380146;28;20034;-76
2023/03/30 21:29:12;;;;;;;10.27;3.33;;;;;;;9.14;100.00;100466.03;10346923;28;20128;-76
2023/03/30 21:34:13;;;;;;;6.30;1.90;;;;;;;9.30;100.00;100461.50;10364400;28;20034;-76
2023/03/30 21:39:13;;;;;;;7.77;3.60;;;;;;;9.43;100.00;100449.88;10362575;28;20045;-76
2023/03/30 21:44:14;;;;;;;12.57;3.60;;;;;;;9.34;100.00;100451.25;10361742;28;20038;-77
2023/03/30 21:49:14;;;;;;;6.45;1.88;;;;;;;9.25;100.00;100437.78;10362126;28;20420;-76
2023/03/30 21:54:16;;;;;;;7.93;2.50;;;;;;;9.21;100.00;100439.38;10362291;28;20121;-76
2023/03/30 21:59:17;;;;;;;3.67;2.13;;;;;;;9.21;100.00;100439.38;10348421;28;20042;-76
2023/03/30 22:04:18;;;;;;;4.70;1.73;;;;;;;8.98;100.00;100422.63;10376082;28;20069;-76
2023/03/30 22:09:18;;;;;;;4.85;1.77;;;;;;;8.86;100.00;100428.16;10357122;28;20068;-76
2023/03/30 22:14:19;;;;;;;5.65;2.72;;;;;;;8.72;100.00;100424.88;10363000;28;20126;-76
2023/03/30 22:19:21;;;;;;;12.27;3.72;;;;;;;8.74;100.00;100414.53;10379064;28;20184;-76
2023/03/30 22:24:22;;;;;;;9.63;4.22;;;;;;;8.65;100.00;100415.88;10359409;28;20460;-77
2023/03/30 22:29:22;;;;;;;9.68;2.08;;;;;;;8.53;100.00;100402.25;10358559;28;20042;-76
2023/03/30 22:34:23;;;;;;;7.32;2.15;;;;;;;8.31;100.00;100395.94;10361594;28;20060;-76
2023/03/30 22:39:24;;;;;;;10.52;4.32;;;;;;;8.23;100.00;100379.91;10359439;28;20037;-76
2023/03/30 22:44:24;;;;;;;7.40;2.78;;;;;;;8.08;100.00;100382.69;10361196;28;20096;-76
2023/03/30 22:49:25;;;;;;;7.03;2.00;;;;;;;8.10;100.00;100381.84;10342802;28;20061;-76
2023/03/30 22:54:25;;;;;;;9.57;2.72;;;;;;;8.20;100.00;100378.88;10362001;28;20053;-76
2023/03/30 22:59:26;;;;;;;5.72;2.63;;;;;;;8.40;100.00;100358.97;10358891;28;20216;-76
2023/03/30 23:04:27;;;;;;;7.85;2.20;;;;;;;8.65;100.00;100360.19;10343873;28;20038;-77